sensor_id;sensor_type;location;lat;lon;timestamp;temperature;humidity
25668;DHT22;18003;-33.830;151.202;2022-07-29T00:01:46;13.60;99.90
25668;DHT22;18003;-33.830;151.202;2022-07-29T00:04:16;13.70;99.90
25668;DHT22;18003;-33.830;151.202;2022-07-29T00:06:46;13.60;99.90
25668;DHT22;18003;-33.830;151.202;2022-07-29T00:09:16;13.60;99.90
25668;DHT22;18003;-33.830;151.202;2022-07-29T00:11:46;13.60;99.90
25668;DHT22;18003;-33.830;151.202;2022-07-29T00:14:16;13.70;99.90
25668;DHT22;18003;-33.830;151.202;2022-07-29T00:16:46;13.60;99.90
25668;DHT22;18003;-33.830;151.202;2022-07-29T00:19:17;13.60;99.90
25668;DHT22;18003;-33.830;151.202;2022-07-29T00:21:47;13.60;99.90
25668;DHT22;18003;-33.830;151.202;2022-07-29T00:24:16;13.60;99.90
25668;DHT22;18003;-33.830;151.202;2022-07-29T00:26:46;13.70;99.90
25668;DHT22;18003;-33.830;151.202;2022-07-29T00:29:16;13.60;99.90
25668;DHT22;18003;-33.830;151.202;2022-07-29T00:31:46;13.60;99.90
25668;DHT22;18003;-33.830;151.202;2022-07-29T00:34:17;13.70;99.90
25668;DHT22;18003;-33.830;151.202;2022-07-29T00:37:04;13.70;99.90
25668;DHT22;18003;-33.830;151.202;2022-07-29T00:39:34;13.70;99.90
25668;DHT22;18003;-33.830;151.202;2022-07-29T00:42:05;13.70;99.90
25668;DHT22;18003;-33.830;151.202;2022-07-29T00:44:40;13.70;99.90
25668;DHT22;18003;-33.830;151.202;2022-07-29T00:47:12;13.70;99.90
25668;DHT22;18003;-33.830;151.202;2022-07-29T00:49:42;13.70;99.90
25668;DHT22;18003;-33.830;151.202;2022-07-29T00:52:13;13.70;99.90
25668;DHT22;18003;-33.830;151.202;2022-07-29T00:54:43;13.70;99.90
25668;DHT22;18003;-33.830;151.202;2022-07-29T00:57:13;13.80;99.90
25668;DHT22;18003;-33.830;151.202;2022-07-29T00:59:43;13.80;99.90
25668;DHT22;18003;-33.830;151.202;2022-07-29T01:02:13;13.80;99.90
25668;DHT22;18003;-33.830;151.202;2022-07-29T01:04:43;13.80;99.90
25668;DHT22;18003;-33.830;151.202;2022-07-29T01:07:13;13.80;99.90
25668;DHT22;18003;-33.830;151.202;2022-07-29T01:09:43;13.80;99.90
25668;DHT22;18003;-33.830;151.202;2022-07-29T01:12:21;13.80;99.90
25668;DHT22;18003;-33.830;151.202;2022-07-29T01:14:52;13.90;99.90
25668;DHT22;18003;-33.830;151.202;2022-07-29T01:20:14;13.80;99.90
25668;DHT22;18003;-33.830;151.202;2022-07-29T01:25:59;13.80;99.90
25668;DHT22;18003;-33.830;151.202;2022-07-29T01:31:24;13.90;99.90
25668;DHT22;18003;-33.830;151.202;2022-07-29T01:33:50;13.90;99.90
25668;DHT22;18003;-33.830;151.202;2022-07-29T01:36:20;13.80;99.90
25668;DHT22;18003;-33.830;151.202;2022-07-29T01:39:07;13.90;99.90
25668;DHT22;18003;-33.830;151.202;2022-07-29T01:41:34;13.90;99.90
25668;DHT22;18003;-33.830;151.202;2022-07-29T01:44:18;13.90;99.90
25668;DHT22;18003;-33.830;151.202;2022-07-29T01:46:49;13.90;99.90
25668;DHT22;18003;-33.830;151.202;2022-07-29T01:49:28;13.90;99.90
25668;DHT22;18003;-33.830;151.202;2022-07-29T01:51:57;13.90;99.90
25668;DHT22;18003;-33.830;151.202;2022-07-29T01:54:47;14.00;99.90
25668;DHT22;18003;-33.830;151.202;2022-07-29T01:57:16;14.00;99.90
25668;DHT22;18003;-33.830;151.202;2022-07-29T01:59:48;14.00;99.90
25668;DHT22;18003;-33.830;151.202;2022-07-29T02:02:19;14.00;99.90
25668;DHT22;18003;-33.830;151.202;2022-07-29T02:04:50;14.00;99.90
25668;DHT22;18003;-33.830;151.202;2022-07-29T02:07:21;14.00;99.90
25668;DHT22;18003;-33.830;151.202;2022-07-29T02:09:50;14.00;99.90
25668;DHT22;18003;-33.830;151.202;2022-07-29T02:12:22;14.00;99.90
25668;DHT22;18003;-33.830;151.202;2022-07-29T02:14:53;14.00;99.90
25668;DHT22;18003;-33.830;151.202;2022-07-29T02:17:38;14.10;99.90
25668;DHT22;18003;-33.830;151.202;2022-07-29T02:20:03;14.10;99.90
25668;DHT22;18003;-33.830;151.202;2022-07-29T02:22:35;14.00;99.90
25668;DHT22;18003;-33.830;151.202;2022-07-29T02:25:04;14.10;99.90
25668;DHT22;18003;-33.830;151.202;2022-07-29T02:27:35;14.10;99.90
25668;DHT22;18003;-33.830;151.202;2022-07-29T02:30:05;14.10;99.90
25668;DHT22;18003;-33.830;151.202;2022-07-29T02:32:36;14.10;99.90
25668;DHT22;18003;-33.830;151.202;2022-07-29T02:35:08;14.10;99.90
25668;DHT22;18003;-33.830;151.202;2022-07-29T02:37:39;14.10;99.90
25668;DHT22;18003;-33.830;151.202;2022-07-29T02:40:11;14.10;99.90
25668;DHT22;18003;-33.830;151.202;2022-07-29T02:42:40;14.20;99.90
25668;DHT22;18003;-33.830;151.202;2022-07-29T02:45:11;14.60;99.90
25668;DHT22;18003;-33.830;151.202;2022-07-29T02:47:46;14.90;99.90
25668;DHT22;18003;-33.830;151.202;2022-07-29T02:50:21;15.10;99.90
25668;DHT22;18003;-33.830;151.202;2022-07-29T02:53:05;15.20;99.90
25668;DHT22;18003;-33.830;151.202;2022-07-29T02:55:50;15.30;99.90
25668;DHT22;18003;-33.830;151.202;2022-07-29T02:58:38;15.30;99.90
25668;DHT22;18003;-33.830;151.202;2022-07-29T03:01:11;15.40;99.90
25668;DHT22;18003;-33.830;151.202;2022-07-29T03:03:41;15.40;99.90
25668;DHT22;18003;-33.830;151.202;2022-07-29T03:06:13;15.50;99.90
25668;DHT22;18003;-33.830;151.202;2022-07-29T03:08:43;15.40;99.90
25668;DHT22;18003;-33.830;151.202;2022-07-29T03:11:14;15.40;99.90
25668;DHT22;18003;-33.830;151.202;2022-07-29T03:13:45;15.40;99.90
25668;DHT22;18003;-33.830;151.202;2022-07-29T03:16:16;15.40;99.90
25668;DHT22;18003;-33.830;151.202;2022-07-29T03:18:48;15.40;99.90
25668;DHT22;18003;-33.830;151.202;2022-07-29T03:21:18;15.40;99.80
25668;DHT22;18003;-33.830;151.202;2022-07-29T03:23:47;15.30;99.90
25668;DHT22;18003;-33.830;151.202;2022-07-29T03:26:17;15.40;99.80
25668;DHT22;18003;-33.830;151.202;2022-07-29T03:28:48;15.40;99.90
25668;DHT22;18003;-33.830;151.202;2022-07-29T03:31:18;15.40;99.90
25668;DHT22;18003;-33.830;151.202;2022-07-29T03:33:48;15.40;99.50
25668;DHT22;18003;-33.830;151.202;2022-07-29T03:36:18;15.40;99.80
25668;DHT22;18003;-33.830;151.202;2022-07-29T03:38:48;15.30;99.80
25668;DHT22;18003;-33.830;151.202;2022-07-29T03:41:19;15.30;99.90
25668;DHT22;18003;-33.830;151.202;2022-07-29T03:43:49;15.30;99.90
25668;DHT22;18003;-33.830;151.202;2022-07-29T03:46:20;15.30;99.70
25668;DHT22;18003;-33.830;151.202;2022-07-29T03:48:52;15.30;99.70
25668;DHT22;18003;-33.830;151.202;2022-07-29T03:51:24;15.30;99.80
25668;DHT22;18003;-33.830;151.202;2022-07-29T03:53:54;15.30;99.60
25668;DHT22;18003;-33.830;151.202;2022-07-29T03:56:24;15.30;99.60
25668;DHT22;18003;-33.830;151.202;2022-07-29T03:58:55;15.20;99.50
25668;DHT22;18003;-33.830;151.202;2022-07-29T04:01:25;15.20;99.20
25668;DHT22;18003;-33.830;151.202;2022-07-29T04:03:57;15.20;99.40
25668;DHT22;18003;-33.830;151.202;2022-07-29T04:06:27;15.20;99.20
25668;DHT22;18003;-33.830;151.202;2022-07-29T04:08:57;15.20;98.90
25668;DHT22;18003;-33.830;151.202;2022-07-29T04:11:27;15.20;99.30
25668;DHT22;18003;-33.830;151.202;2022-07-29T04:13:57;15.10;98.90
25668;DHT22;18003;-33.830;151.202;2022-07-29T04:16:27;15.10;99.00
25668;DHT22;18003;-33.830;151.202;2022-07-29T04:18:57;15.10;99.00
25668;DHT22;18003;-33.830;151.202;2022-07-29T04:21:27;15.10;99.20
25668;DHT22;18003;-33.830;151.202;2022-07-29T04:23:57;15.10;99.90
25668;DHT22;18003;-33.830;151.202;2022-07-29T04:26:26;15.00;99.50
25668;DHT22;18003;-33.830;151.202;2022-07-29T04:28:57;15.00;99.30
25668;DHT22;18003;-33.830;151.202;2022-07-29T04:31:26;15.00;99.50
25668;DHT22;18003;-33.830;151.202;2022-07-29T04:33:57;15.00;99.00
25668;DHT22;18003;-33.830;151.202;2022-07-29T04:36:27;15.00;99.10
25668;DHT22;18003;-33.830;151.202;2022-07-29T04:38:57;15.00;99.30
25668;DHT22;18003;-33.830;151.202;2022-07-29T04:41:27;15.00;99.30
25668;DHT22;18003;-33.830;151.202;2022-07-29T04:43:57;15.00;99.90
25668;DHT22;18003;-33.830;151.202;2022-07-29T04:46:28;14.90;99.90
25668;DHT22;18003;-33.830;151.202;2022-07-29T04:48:59;14.90;99.80
25668;DHT22;18003;-33.830;151.202;2022-07-29T04:51:29;15.00;99.90
25668;DHT22;18003;-33.830;151.202;2022-07-29T04:53:59;15.00;99.90
25668;DHT22;18003;-33.830;151.202;2022-07-29T04:56:29;15.00;99.90
25668;DHT22;18003;-33.830;151.202;2022-07-29T04:58:59;15.00;99.90
25668;DHT22;18003;-33.830;151.202;2022-07-29T05:01:29;15.00;99.90
25668;DHT22;18003;-33.830;151.202;2022-07-29T05:03:59;14.90;99.90
25668;DHT22;18003;-33.830;151.202;2022-07-29T05:06:29;14.90;99.90
25668;DHT22;18003;-33.830;151.202;2022-07-29T05:08:59;14.90;99.90
25668;DHT22;18003;-33.830;151.202;2022-07-29T05:11:29;14.80;99.90
25668;DHT22;18003;-33.830;151.202;2022-07-29T05:13:59;14.80;99.90
25668;DHT22;18003;-33.830;151.202;2022-07-29T05:16:29;14.80;99.90
25668;DHT22;18003;-33.830;151.202;2022-07-29T05:18:59;14.80;99.90
25668;DHT22;18003;-33.830;151.202;2022-07-29T05:21:29;14.90;99.90
25668;DHT22;18003;-33.830;151.202;2022-07-29T05:23:59;14.90;99.90
25668;DHT22;18003;-33.830;151.202;2022-07-29T05:26:29;14.90;99.90
25668;DHT22;18003;-33.830;151.202;2022-07-29T05:28:59;14.90;99.90
25668;DHT22;18003;-33.830;151.202;2022-07-29T05:31:29;14.80;99.90
25668;DHT22;18003;-33.830;151.202;2022-07-29T05:33:59;14.90;99.90
25668;DHT22;18003;-33.830;151.202;2022-07-29T05:36:29;14.90;99.90
25668;DHT22;18003;-33.830;151.202;2022-07-29T05:38:59;14.80;99.90
25668;DHT22;18003;-33.830;151.202;2022-07-29T05:41:34;14.80;99.90
25668;DHT22;18003;-33.830;151.202;2022-07-29T05:44:04;14.80;99.90
25668;DHT22;18003;-33.830;151.202;2022-07-29T05:46:34;14.80;99.90
25668;DHT22;18003;-33.830;151.202;2022-07-29T05:49:04;14.80;99.90
25668;DHT22;18003;-33.830;151.202;2022-07-29T05:51:37;14.80;99.90
25668;DHT22;18003;-33.830;151.202;2022-07-29T05:54:07;14.70;99.90
25668;DHT22;18003;-33.830;151.202;2022-07-29T05:56:37;14.70;99.90
25668;DHT22;18003;-33.830;151.202;2022-07-29T05:59:07;14.70;99.90
25668;DHT22;18003;-33.830;151.202;2022-07-29T06:01:37;14.70;99.90
25668;DHT22;18003;-33.830;151.202;2022-07-29T06:04:07;14.70;99.90
25668;DHT22;18003;-33.830;151.202;2022-07-29T06:06:37;14.70;99.90
25668;DHT22;18003;-33.830;151.202;2022-07-29T06:09:08;14.70;99.90
25668;DHT22;18003;-33.830;151.202;2022-07-29T06:11:38;14.70;99.90
25668;DHT22;18003;-33.830;151.202;2022-07-29T06:14:08;14.60;99.90
25668;DHT22;18003;-33.830;151.202;2022-07-29T06:19:36;14.70;99.90
25668;DHT22;18003;-33.830;151.202;2022-07-29T06:22:18;14.60;99.90
25668;DHT22;18003;-33.830;151.202;2022-07-29T06:24:49;14.60;99.90
25668;DHT22;18003;-33.830;151.202;2022-07-29T06:27:19;14.60;99.90
25668;DHT22;18003;-33.830;151.202;2022-07-29T06:29:49;14.60;99.90
25668;DHT22;18003;-33.830;151.202;2022-07-29T06:32:19;14.60;99.90
25668;DHT22;18003;-33.830;151.202;2022-07-29T06:34:50;14.60;99.90
25668;DHT22;18003;-33.830;151.202;2022-07-29T06:37:20;14.60;99.90
25668;DHT22;18003;-33.830;151.202;2022-07-29T06:39:50;14.60;99.90
25668;DHT22;18003;-33.830;151.202;2022-07-29T06:42:21;14.60;99.90
25668;DHT22;18003;-33.830;151.202;2022-07-29T06:44:52;14.50;99.90
25668;DHT22;18003;-33.830;151.202;2022-07-29T06:47:22;14.60;99.90
25668;DHT22;18003;-33.830;151.202;2022-07-29T06:49:52;14.50;99.90
25668;DHT22;18003;-33.830;151.202;2022-07-29T06:52:22;14.60;99.90
25668;DHT22;18003;-33.830;151.202;2022-07-29T06:54:53;14.50;99.90
25668;DHT22;18003;-33.830;151.202;2022-07-29T06:57:24;14.40;99.90
25668;DHT22;18003;-33.830;151.202;2022-07-29T06:59:55;14.40;99.90
25668;DHT22;18003;-33.830;151.202;2022-07-29T07:02:25;14.30;99.90
25668;DHT22;18003;-33.830;151.202;2022-07-29T07:04:55;14.30;99.90
25668;DHT22;18003;-33.830;151.202;2022-07-29T07:07:25;14.30;99.90
25668;DHT22;18003;-33.830;151.202;2022-07-29T07:09:55;14.30;99.90
25668;DHT22;18003;-33.830;151.202;2022-07-29T07:12:25;14.30;99.90
25668;DHT22;18003;-33.830;151.202;2022-07-29T07:14:55;14.30;99.90
25668;DHT22;18003;-33.830;151.202;2022-07-29T07:17:25;14.20;99.90
25668;DHT22;18003;-33.830;151.202;2022-07-29T07:19:55;14.20;99.90
25668;DHT22;18003;-33.830;151.202;2022-07-29T07:22:25;14.10;99.90
25668;DHT22;18003;-33.830;151.202;2022-07-29T07:24:55;14.20;99.90
25668;DHT22;18003;-33.830;151.202;2022-07-29T07:27:25;14.10;99.90
25668;DHT22;18003;-33.830;151.202;2022-07-29T07:29:55;14.20;99.90
25668;DHT22;18003;-33.830;151.202;2022-07-29T07:32:25;14.10;99.90
25668;DHT22;18003;-33.830;151.202;2022-07-29T07:34:55;14.10;99.90
25668;DHT22;18003;-33.830;151.202;2022-07-29T07:37:25;14.10;99.90
25668;DHT22;18003;-33.830;151.202;2022-07-29T07:39:55;14.10;99.90
25668;DHT22;18003;-33.830;151.202;2022-07-29T07:42:26;14.10;99.90
25668;DHT22;18003;-33.830;151.202;2022-07-29T07:44:56;14.10;99.90
25668;DHT22;18003;-33.830;151.202;2022-07-29T07:47:26;14.10;99.90
25668;DHT22;18003;-33.830;151.202;2022-07-29T07:49:56;14.00;99.90
25668;DHT22;18003;-33.830;151.202;2022-07-29T07:52:26;14.00;99.90
25668;DHT22;18003;-33.830;151.202;2022-07-29T07:54:56;14.00;99.90
25668;DHT22;18003;-33.830;151.202;2022-07-29T07:57:26;14.00;99.90
25668;DHT22;18003;-33.830;151.202;2022-07-29T07:59:57;14.00;99.90
25668;DHT22;18003;-33.830;151.202;2022-07-29T08:02:27;14.00;99.90
25668;DHT22;18003;-33.830;151.202;2022-07-29T08:04:57;14.00;99.90
25668;DHT22;18003;-33.830;151.202;2022-07-29T08:07:27;13.90;99.90
25668;DHT22;18003;-33.830;151.202;2022-07-29T08:09:57;13.90;99.90
25668;DHT22;18003;-33.830;151.202;2022-07-29T08:12:27;13.80;99.90
25668;DHT22;18003;-33.830;151.202;2022-07-29T08:14:57;13.80;99.90
25668;DHT22;18003;-33.830;151.202;2022-07-29T08:17:27;13.70;99.90
25668;DHT22;18003;-33.830;151.202;2022-07-29T08:19:57;13.70;99.90
25668;DHT22;18003;-33.830;151.202;2022-07-29T08:22:27;13.70;99.90
25668;DHT22;18003;-33.830;151.202;2022-07-29T08:24:57;13.70;99.90
25668;DHT22;18003;-33.830;151.202;2022-07-29T08:27:27;13.60;99.90
25668;DHT22;18003;-33.830;151.202;2022-07-29T08:29:58;13.70;99.90
25668;DHT22;18003;-33.830;151.202;2022-07-29T08:32:28;13.60;99.90
25668;DHT22;18003;-33.830;151.202;2022-07-29T08:34:59;13.60;99.90
25668;DHT22;18003;-33.830;151.202;2022-07-29T08:37:29;13.70;99.90
25668;DHT22;18003;-33.830;151.202;2022-07-29T08:39:59;13.60;99.90
25668;DHT22;18003;-33.830;151.202;2022-07-29T08:42:29;13.60;99.90
25668;DHT22;18003;-33.830;151.202;2022-07-29T08:44:59;13.60;99.90
25668;DHT22;18003;-33.830;151.202;2022-07-29T08:47:30;13.60;99.90
25668;DHT22;18003;-33.830;151.202;2022-07-29T08:50:00;13.60;99.90
25668;DHT22;18003;-33.830;151.202;2022-07-29T08:52:30;13.60;99.90
25668;DHT22;18003;-33.830;151.202;2022-07-29T08:55:02;13.60;99.90
25668;DHT22;18003;-33.830;151.202;2022-07-29T08:57:33;13.60;99.90
25668;DHT22;18003;-33.830;151.202;2022-07-29T09:00:05;13.70;99.90
25668;DHT22;18003;-33.830;151.202;2022-07-29T09:02:41;13.70;99.90
25668;DHT22;18003;-33.830;151.202;2022-07-29T09:05:12;13.80;99.90
25668;DHT22;18003;-33.830;151.202;2022-07-29T09:07:42;13.70;99.90
25668;DHT22;18003;-33.830;151.202;2022-07-29T09:10:14;13.60;99.90
25668;DHT22;18003;-33.830;151.202;2022-07-29T09:12:44;13.50;99.90
25668;DHT22;18003;-33.830;151.202;2022-07-29T09:15:14;13.30;99.90
25668;DHT22;18003;-33.830;151.202;2022-07-29T09:17:45;13.10;99.90
25668;DHT22;18003;-33.830;151.202;2022-07-29T09:20:21;12.80;99.90
25668;DHT22;18003;-33.830;151.202;2022-07-29T09:22:47;12.60;99.90
25668;DHT22;18003;-33.830;151.202;2022-07-29T09:25:37;12.50;99.90
25668;DHT22;18003;-33.830;151.202;2022-07-29T09:28:15;12.50;99.90
25668;DHT22;18003;-33.830;151.202;2022-07-29T09:30:53;12.50;99.90
25668;DHT22;18003;-33.830;151.202;2022-07-29T09:33:24;12.60;99.90
25668;DHT22;18003;-33.830;151.202;2022-07-29T09:36:04;12.60;99.90
25668;DHT22;18003;-33.830;151.202;2022-07-29T09:38:35;12.60;99.90
25668;DHT22;18003;-33.830;151.202;2022-07-29T09:41:06;12.50;99.90
25668;DHT22;18003;-33.830;151.202;2022-07-29T09:43:37;12.60;99.90
25668;DHT22;18003;-33.830;151.202;2022-07-29T09:46:13;12.50;99.90
25668;DHT22;18003;-33.830;151.202;2022-07-29T09:48:43;12.50;99.90
25668;DHT22;18003;-33.830;151.202;2022-07-29T09:51:22;12.50;99.90
25668;DHT22;18003;-33.830;151.202;2022-07-29T09:53:52;12.40;99.90
25668;DHT22;18003;-33.830;151.202;2022-07-29T09:56:39;12.40;99.90
25668;DHT22;18003;-33.830;151.202;2022-07-29T09:59:10;12.50;99.90
25668;DHT22;18003;-33.830;151.202;2022-07-29T10:01:40;12.50;99.90
25668;DHT22;18003;-33.830;151.202;2022-07-29T10:04:11;12.40;99.90
25668;DHT22;18003;-33.830;151.202;2022-07-29T10:06:57;12.50;99.90
25668;DHT22;18003;-33.830;151.202;2022-07-29T10:09:28;12.50;99.90
25668;DHT22;18003;-33.830;151.202;2022-07-29T10:12:11;12.40;99.90
25668;DHT22;18003;-33.830;151.202;2022-07-29T10:14:44;12.40;99.90
25668;DHT22;18003;-33.830;151.202;2022-07-29T10:17:16;12.40;99.90
25668;DHT22;18003;-33.830;151.202;2022-07-29T10:19:47;12.40;99.90
25668;DHT22;18003;-33.830;151.202;2022-07-29T10:22:17;12.50;99.90
25668;DHT22;18003;-33.830;151.202;2022-07-29T10:24:47;12.60;99.90
25668;DHT22;18003;-33.830;151.202;2022-07-29T10:27:17;12.60;99.90
25668;DHT22;18003;-33.830;151.202;2022-07-29T10:29:47;12.70;99.90
25668;DHT22;18003;-33.830;151.202;2022-07-29T10:35:09;12.50;99.90
25668;DHT22;18003;-33.830;151.202;2022-07-29T10:38:02;12.50;99.90
25668;DHT22;18003;-33.830;151.202;2022-07-29T10:43:28;12.60;99.90
25668;DHT22;18003;-33.830;151.202;2022-07-29T10:45:59;12.60;99.90
25668;DHT22;18003;-33.830;151.202;2022-07-29T10:48:29;12.60;99.90
25668;DHT22;18003;-33.830;151.202;2022-07-29T10:53:52;12.50;99.90
25668;DHT22;18003;-33.830;151.202;2022-07-29T10:56:28;12.50;99.90
25668;DHT22;18003;-33.830;151.202;2022-07-29T11:01:53;12.50;99.90
25668;DHT22;18003;-33.830;151.202;2022-07-29T11:07:17;12.50;99.90
25668;DHT22;18003;-33.830;151.202;2022-07-29T11:15:17;12.40;99.90
25668;DHT22;18003;-33.830;151.202;2022-07-29T11:20:49;12.40;99.90
25668;DHT22;18003;-33.830;151.202;2022-07-29T11:23:25;12.40;99.90
25668;DHT22;18003;-33.830;151.202;2022-07-29T11:26:16;12.30;99.90
25668;DHT22;18003;-33.830;151.202;2022-07-29T11:28:53;12.40;99.90
25668;DHT22;18003;-33.830;151.202;2022-07-29T11:31:33;12.40;99.90
25668;DHT22;18003;-33.830;151.202;2022-07-29T11:45:11;13.00;99.90
25668;DHT22;18003;-33.830;151.202;2022-07-29T11:50:33;13.10;99.90
25668;DHT22;18003;-33.830;151.202;2022-07-29T11:52:48;13.10;99.90
25668;DHT22;18003;-33.830;151.202;2022-07-29T11:55:19;13.10;99.90
25668;DHT22;18003;-33.830;151.202;2022-07-29T11:57:54;13.10;99.90
25668;DHT22;18003;-33.830;151.202;2022-07-29T12:00:26;13.10;99.90
25668;DHT22;18003;-33.830;151.202;2022-07-29T12:02:57;13.10;99.90
25668;DHT22;18003;-33.830;151.202;2022-07-29T12:05:38;13.10;99.90
25668;DHT22;18003;-33.830;151.202;2022-07-29T12:08:13;13.10;99.90
25668;DHT22;18003;-33.830;151.202;2022-07-29T12:10:44;13.10;99.90
25668;DHT22;18003;-33.830;151.202;2022-07-29T12:13:15;13.20;99.90
25668;DHT22;18003;-33.830;151.202;2022-07-29T12:15:52;13.10;99.90
25668;DHT22;18003;-33.830;151.202;2022-07-29T12:18:22;13.10;99.90
25668;DHT22;18003;-33.830;151.202;2022-07-29T12:20:59;13.10;99.90
25668;DHT22;18003;-33.830;151.202;2022-07-29T12:23:31;13.20;99.90
25668;DHT22;18003;-33.830;151.202;2022-07-29T12:26:05;13.20;99.90
25668;DHT22;18003;-33.830;151.202;2022-07-29T12:28:38;13.20;99.90
25668;DHT22;18003;-33.830;151.202;2022-07-29T12:31:15;13.10;99.90
25668;DHT22;18003;-33.830;151.202;2022-07-29T12:33:51;13.10;99.90
25668;DHT22;18003;-33.830;151.202;2022-07-29T12:36:17;13.10;99.90
25668;DHT22;18003;-33.830;151.202;2022-07-29T12:38:47;13.10;99.90
25668;DHT22;18003;-33.830;151.202;2022-07-29T12:41:18;13.10;99.90
25668;DHT22;18003;-33.830;151.202;2022-07-29T12:43:55;13.10;99.90
25668;DHT22;18003;-33.830;151.202;2022-07-29T12:46:25;13.20;99.90
25668;DHT22;18003;-33.830;151.202;2022-07-29T12:48:55;13.20;99.90
25668;DHT22;18003;-33.830;151.202;2022-07-29T12:51:36;13.20;99.90
25668;DHT22;18003;-33.830;151.202;2022-07-29T12:54:10;13.20;99.90
25668;DHT22;18003;-33.830;151.202;2022-07-29T12:56:43;13.20;99.90
25668;DHT22;18003;-33.830;151.202;2022-07-29T12:59:22;13.20;99.90
25668;DHT22;18003;-33.830;151.202;2022-07-29T13:01:52;13.20;99.90
25668;DHT22;18003;-33.830;151.202;2022-07-29T13:04:32;13.20;99.90
25668;DHT22;18003;-33.830;151.202;2022-07-29T13:07:09;13.20;99.90
25668;DHT22;18003;-33.830;151.202;2022-07-29T13:09:44;13.30;99.90
25668;DHT22;18003;-33.830;151.202;2022-07-29T13:12:15;13.20;99.90
25668;DHT22;18003;-33.830;151.202;2022-07-29T13:14:46;13.20;99.90
25668;DHT22;18003;-33.830;151.202;2022-07-29T13:17:18;13.20;99.90
25668;DHT22;18003;-33.830;151.202;2022-07-29T13:19:52;13.20;99.90
25668;DHT22;18003;-33.830;151.202;2022-07-29T13:22:23;13.20;99.90
25668;DHT22;18003;-33.830;151.202;2022-07-29T13:27:26;13.30;99.90
25668;DHT22;18003;-33.830;151.202;2022-07-29T13:29:57;13.20;99.90
25668;DHT22;18003;-33.830;151.202;2022-07-29T13:32:28;13.20;99.90
25668;DHT22;18003;-33.830;151.202;2022-07-29T13:34:58;13.20;99.90
25668;DHT22;18003;-33.830;151.202;2022-07-29T13:37:29;13.20;99.90
25668;DHT22;18003;-33.830;151.202;2022-07-29T13:40:01;13.20;99.90
25668;DHT22;18003;-33.830;151.202;2022-07-29T13:42:32;13.20;99.90
25668;DHT22;18003;-33.830;151.202;2022-07-29T13:45:02;13.20;99.90
25668;DHT22;18003;-33.830;151.202;2022-07-29T13:47:32;13.20;99.90
25668;DHT22;18003;-33.830;151.202;2022-07-29T13:50:03;13.20;99.90
25668;DHT22;18003;-33.830;151.202;2022-07-29T13:52:33;13.20;99.90
25668;DHT22;18003;-33.830;151.202;2022-07-29T13:55:03;13.20;99.90
25668;DHT22;18003;-33.830;151.202;2022-07-29T13:57:33;13.20;99.90
25668;DHT22;18003;-33.830;151.202;2022-07-29T14:00:04;13.20;99.90
25668;DHT22;18003;-33.830;151.202;2022-07-29T14:02:34;13.20;99.90
25668;DHT22;18003;-33.830;151.202;2022-07-29T14:05:10;13.20;99.90
25668;DHT22;18003;-33.830;151.202;2022-07-29T14:07:35;13.20;99.90
25668;DHT22;18003;-33.830;151.202;2022-07-29T14:10:06;13.20;99.90
25668;DHT22;18003;-33.830;151.202;2022-07-29T14:12:37;13.00;99.90
25668;DHT22;18003;-33.830;151.202;2022-07-29T14:15:07;12.90;99.90
25668;DHT22;18003;-33.830;151.202;2022-07-29T14:17:37;12.90;99.90
25668;DHT22;18003;-33.830;151.202;2022-07-29T14:20:08;12.80;99.90
25668;DHT22;18003;-33.830;151.202;2022-07-29T14:22:38;12.70;99.90
25668;DHT22;18003;-33.830;151.202;2022-07-29T14:25:09;12.60;99.90
25668;DHT22;18003;-33.830;151.202;2022-07-29T14:27:40;12.60;99.90
25668;DHT22;18003;-33.830;151.202;2022-07-29T14:30:10;12.60;99.90
25668;DHT22;18003;-33.830;151.202;2022-07-29T14:32:40;12.40;99.90
25668;DHT22;18003;-33.830;151.202;2022-07-29T14:35:10;12.20;99.90
25668;DHT22;18003;-33.830;151.202;2022-07-29T14:37:40;12.20;99.90
25668;DHT22;18003;-33.830;151.202;2022-07-29T14:40:11;12.00;99.90
25668;DHT22;18003;-33.830;151.202;2022-07-29T14:42:41;11.90;99.90
25668;DHT22;18003;-33.830;151.202;2022-07-29T14:45:11;11.80;99.90
25668;DHT22;18003;-33.830;151.202;2022-07-29T14:47:41;11.80;99.90
25668;DHT22;18003;-33.830;151.202;2022-07-29T14:50:11;11.70;99.90
25668;DHT22;18003;-33.830;151.202;2022-07-29T14:52:41;11.70;99.90
25668;DHT22;18003;-33.830;151.202;2022-07-29T14:55:11;11.70;99.90
25668;DHT22;18003;-33.830;151.202;2022-07-29T14:57:41;11.60;99.90
25668;DHT22;18003;-33.830;151.202;2022-07-29T15:00:12;11.50;99.90
25668;DHT22;18003;-33.830;151.202;2022-07-29T15:02:42;11.60;99.90
25668;DHT22;18003;-33.830;151.202;2022-07-29T15:05:12;11.70;99.90
25668;DHT22;18003;-33.830;151.202;2022-07-29T15:07:42;11.80;99.90
25668;DHT22;18003;-33.830;151.202;2022-07-29T15:10:12;11.80;99.90
25668;DHT22;18003;-33.830;151.202;2022-07-29T15:12:42;11.70;99.90
25668;DHT22;18003;-33.830;151.202;2022-07-29T15:15:12;11.70;99.90
25668;DHT22;18003;-33.830;151.202;2022-07-29T15:17:42;11.80;99.90
25668;DHT22;18003;-33.830;151.202;2022-07-29T15:20:12;11.70;99.90
25668;DHT22;18003;-33.830;151.202;2022-07-29T15:22:42;11.70;99.90
25668;DHT22;18003;-33.830;151.202;2022-07-29T15:25:12;11.60;99.90
25668;DHT22;18003;-33.830;151.202;2022-07-29T15:27:42;11.70;99.90
25668;DHT22;18003;-33.830;151.202;2022-07-29T15:30:13;11.60;99.90
25668;DHT22;18003;-33.830;151.202;2022-07-29T15:32:44;11.60;99.90
25668;DHT22;18003;-33.830;151.202;2022-07-29T15:35:14;11.50;99.90
25668;DHT22;18003;-33.830;151.202;2022-07-29T15:37:44;11.60;99.90
25668;DHT22;18003;-33.830;151.202;2022-07-29T15:40:14;11.50;99.90
25668;DHT22;18003;-33.830;151.202;2022-07-29T15:42:44;11.50;99.90
25668;DHT22;18003;-33.830;151.202;2022-07-29T15:45:14;11.60;99.90
25668;DHT22;18003;-33.830;151.202;2022-07-29T15:47:44;11.50;99.90
25668;DHT22;18003;-33.830;151.202;2022-07-29T15:50:14;11.50;99.90
25668;DHT22;18003;-33.830;151.202;2022-07-29T15:52:44;11.50;99.90
25668;DHT22;18003;-33.830;151.202;2022-07-29T15:55:14;11.40;99.90
25668;DHT22;18003;-33.830;151.202;2022-07-29T15:57:44;11.40;99.90
25668;DHT22;18003;-33.830;151.202;2022-07-29T16:00:14;11.40;99.90
25668;DHT22;18003;-33.830;151.202;2022-07-29T16:02:45;11.40;99.90
25668;DHT22;18003;-33.830;151.202;2022-07-29T16:05:15;11.40;99.90